• Join FlightAware (Why Join?)
  • Login
  • US Flag 
06:14PM EST


 

Airport Tracker/Info


-or-


 

Live Flight TrackerFlight Track Log ✈ FLG3740 ✈ 26-Apr-2013 ✈ KCVG - KGRR

Flight Track Log - Related Links

Times and Time Zones

All times are in EDT time to prevent confusion due to time zone crossing. See the FLG3740 flight status page for this flight to view local times or setup timezone preferences in your user account.

Time Position Orientation Groundspeed Altitude Reporting Facility
EDT Latitude Longitude Course Direction KTS MPH feet Rate Location/Type
04:20PM 39.0500 -84.6833 270° West 188 216 1,300  Level Cincinnati TRACON
04:21PM 39.0500 -84.7333 270° West 187 215 2,600 1,860 Climbing Cincinnati TRACON
04:22PM 39.0500 -84.8167 270° West 270 311 4,500 2,400 Climbing Cincinnati TRACON
04:23PM 39.0833 -84.9000 297° West 276 318 7,400 2,580 Climbing Cincinnati TRACON
04:23PM 39.1078 -84.9142 336° Northwest 269 310 8,400 2,280 Climbing Indianapolis Center
04:24PM 39.1897 -84.9311 351° North 291 335 10,900 2,100 Climbing Indianapolis Center
04:25PM 39.2803 -84.9447 353° North 322 371 12,800 2,160 Climbing Indianapolis Center
04:26PM 39.3958 -84.9619 353° North 351 404 15,400 2,100 Climbing Indianapolis Center
04:27PM 39.4942 -84.9758 354° North 353 406 17,200 1,380 Climbing Indianapolis Center
04:28PM 39.5939 -84.9914 353° North 357 411 18,300 1,140 Climbing Indianapolis Center
04:29PM 39.6958 -85.0067 353° North 363 418 19,600 1,200 Climbing Indianapolis Center
04:31PM 39.8003 -85.0236 353° North 371 427 20,900 1,140 Climbing Indianapolis Center
04:32PM 39.9033 -85.0392 353° North 372 428 22,000 480 Climbing Indianapolis Center
04:33PM 40.0281 -85.0583 353° North 381 438 22,000  Level Indianapolis Center
04:34PM 40.1344 -85.0756 353° North 383 441 22,000  Level Indianapolis Center
04:35PM 40.2411 -85.0928 353° North 384 442 22,000  Level Indianapolis Center
04:36PM 40.3478 -85.1089 353° North 384 442 22,000  Level Indianapolis Center
04:37PM 40.4558 -85.1258 353° North 387 445 22,000  Level Chicago Center
04:38PM 40.5633 -85.1419 354° North 386 444 22,000  Level Chicago Center
04:39PM 40.6775 -85.1600 353° North 387 445 22,000  Level Chicago Center
04:40PM 40.7844 -85.1769 353° North 386 444 22,000  Level Chicago Center
04:41PM 40.8919 -85.1936 353° North 390 449 22,000  Level Chicago Center
04:42PM 41.0000 -85.2111 353° North 391 450 22,000  Level Chicago Center
04:43PM 41.1294 -85.2306 354° North 390 449 22,000  Level Chicago Center
04:44PM 41.2364 -85.2481 353° North 389 448 22,000  Level Chicago Center
04:45PM 41.3431 -85.2658 353° North 388 447 22,000  Level Chicago Center
04:46PM 41.4500 -85.2833 353° North 389 448 22,000  Level Chicago Center
04:47PM 41.5567 -85.3017 353° North 391 450 22,000  Level Chicago Center
04:48PM 41.6817 -85.3214 353° North 392 451 22,000 -180 Level Chicago Center
04:49PM 41.7861 -85.3403 352° North 388 447 21,700 -1,080 Descending Chicago Center
04:50PM 41.8892 -85.3572 353° North 379 436 19,800 -1,800 Descending Chicago Center
04:51PM 41.9869 -85.3731 353° North 360 414 18,000 -1,620 Descending Chicago Center
04:52PM 42.0922 -85.3917 353° North 356 410 16,500 -1,620 Descending Chicago Center
04:53PM 42.1864 -85.4056 354° North 345 397 14,700 -1,920 Descending Chicago Center
04:54PM 42.2958 -85.4236 353° North 336 387 12,600 -1,740 Descending Chicago Center
04:55PM 42.3894 -85.4378 354° North 336 387 11,200 -1,140 Descending Chicago Center
04:56PM 42.4736 -85.4506 354° North 309 356 10,300 -1,260 Descending Chicago Center
04:57PM 42.5483 -85.4108 21° North 290 334 8,600 -1,740 Descending Chicago Center
04:58PM 42.6189 -85.3756 20° North 276 318 6,800 -1,740 Descending Chicago Center
04:59PM 42.6914 -85.3581 10° North 269 310 5,100 -1,620 Descending Chicago Center
05:00PM 42.7742 -85.3708 354° North 255 293 3,500 -1,020 Descending Chicago Center
05:01PM 42.8383 -85.3753 357° North 244 281 3,100 -540 Descending Chicago Center
05:03PM 42.8789 -85.4006 335° Northwest 205 236 2,500 -600 Descending Chicago Center